Time;durP1;ratioP1;P1;durP2;ratioP2;P2;SDS_P1;SDS_P2;PMS_P1;PMS_P2;Temp;Humidity;BMP_temperature;BMP_pressure;BME280_temperature;BME280_humidity;BME280_pressure;Samples;Min_cycle;Max_cycle;Signal;HPM_P1;HPM_P2
2023/01/25 00:01:56;;;;;;;13.95;8.95;;;7.60;75.40;;;;;;6276978;22;20012;-77
2023/01/25 00:04:22;;;;;;;13.85;9.25;;;7.60;75.40;;;;;;6275319;22;20452;-78
2023/01/25 00:06:48;;;;;;;17.23;8.77;;;7.70;76.00;;;;;;6277225;22;20003;-79
2023/01/25 00:09:15;;;;;;;15.25;8.90;;;7.70;76.10;;;;;;6276861;22;20011;-79
2023/01/25 00:11:41;;;;;;;12.77;9.35;;;7.80;75.80;;;;;;6277235;22;20023;-79
2023/01/25 00:14:09;;;;;;;13.00;9.20;;;7.70;75.50;;;;;;6276728;22;20003;-77
2023/01/25 00:16:36;;;;;;;12.23;8.57;;;7.80;76.10;;;;;;6276664;22;20330;-77
2023/01/25 00:19:02;;;;;;;14.38;9.77;;;7.80;75.90;;;;;;6275087;22;20050;-79
2023/01/25 00:21:27;;;;;;;12.75;8.90;;;7.70;75.60;;;;;;6276130;22;20008;-78
2023/01/25 00:23:53;;;;;;;12.57;8.77;;;7.70;75.70;;;;;;6276607;22;19999;-78
2023/01/25 00:26:20;;;;;;;13.50;9.13;;;7.70;76.10;;;;;;6276612;22;20000;-78
2023/01/25 00:28:53;;;;;;;13.43;8.60;;;7.60;75.80;;;;;;6276668;22;20440;-78
2023/01/25 00:31:32;;;;;;;12.43;9.18;;;7.50;76.30;;;;;;6223914;22;20039;-77
2023/01/25 00:34:23;;;;;;;15.38;9.52;;;7.50;76.20;;;;;;6276311;22;20485;-78
2023/01/25 00:36:58;;;;;;;15.38;9.57;;;7.60;77.20;;;;;;6276774;22;19996;-78
2023/01/25 00:39:25;;;;;;;13.80;8.93;;;7.60;77.20;;;;;;6276661;22;20011;-78
2023/01/25 00:41:51;;;;;;;11.88;8.77;;;7.60;76.30;;;;;;6276741;22;20007;-78
2023/01/25 00:44:17;;;;;;;13.82;9.23;;;7.50;76.60;;;;;;6276323;22;20011;-78
2023/01/25 00:46:43;;;;;;;16.25;9.55;;;7.50;76.50;;;;;;6276517;22;20333;-79
2023/01/25 00:49:30;;;;;;;15.00;9.10;;;7.40;76.50;;;;;;6249300;22;20000;-78
2023/01/25 00:51:57;;;;;;;12.60;8.90;;;7.50;77.30;;;;;;6274767;22;20007;-77
2023/01/25 00:54:23;;;;;;;13.32;9.38;;;7.50;77.50;;;;;;6276335;22;20004;-77
2023/01/25 00:56:51;;;;;;;15.85;9.27;;;7.50;77.00;;;;;;6275950;22;20022;-78
2023/01/25 00:59:17;;;;;;;13.45;8.88;;;7.50;76.90;;;;;;6276214;22;20098;-77
2023/01/25 01:01:43;;;;;;;11.43;8.43;;;7.40;76.80;;;;;;6276275;22;20044;-78
2023/01/25 01:04:08;;;;;;;14.07;8.63;;;7.40;76.70;;;;;;6288736;22;20030;-78
2023/01/25 01:06:36;;;;;;;11.55;7.93;;;7.40;77.60;;;;;;6281043;22;20008;-78
2023/01/25 01:09:02;;;;;;;13.02;8.45;;;7.40;77.20;;;;;;6276135;22;20003;-78
2023/01/25 01:11:30;;;;;;;11.40;7.43;;;7.50;77.00;;;;;;6276317;22;20006;-79
2023/01/25 01:13:56;;;;;;;10.23;7.10;;;7.50;76.70;;;;;;6275910;22;20008;-78
2023/01/25 01:16:22;;;;;;;10.38;6.93;;;7.40;76.20;;;;;;6276453;22;20000;-78
2023/01/25 01:18:48;;;;;;;10.13;7.35;;;7.40;76.30;;;;;;6276258;22;20421;-78
2023/01/25 01:21:14;;;;;;;11.02;6.70;;;7.50;76.50;;;;;;6276789;22;20014;-80
2023/01/25 01:23:40;;;;;;;11.77;6.88;;;7.50;76.30;;;;;;6248840;22;20035;-79
2023/01/25 01:26:10;;;;;;;9.95;6.22;;;7.50;76.10;;;;;;6275755;22;20007;-77
2023/01/25 01:28:39;;;;;;;10.68;6.57;;;7.50;76.30;;;;;;6275382;22;20020;-78
2023/01/25 01:31:07;;;;;;;8.95;6.50;;;7.50;76.60;;;;;;6275695;22;20034;-79
2023/01/25 01:33:33;;;;;;;9.82;6.13;;;7.50;76.00;;;;;;6275718;22;20004;-77
2023/01/25 01:36:05;;;;;;;9.77;6.55;;;7.40;75.60;;;;;;6276525;22;20026;-78
2023/01/25 01:38:31;;;;;;;10.50;6.70;;;7.50;77.00;;;;;;6299265;22;20017;-77
2023/01/25 01:40:57;;;;;;;9.82;6.57;;;7.50;76.60;;;;;;6302034;22;20006;-76
2023/01/25 01:43:23;;;;;;;13.27;6.70;;;7.50;76.30;;;;;;6294800;22;20035;-78
2023/01/25 01:45:57;;;;;;;9.60;6.45;;;7.50;76.30;;;;;;6284193;22;20030;-78
2023/01/25 01:48:47;;;;;;;10.60;6.82;;;7.50;76.70;;;;;;6276731;22;20053;-79
2023/01/25 01:51:20;;;;;;;10.13;6.95;;;7.40;77.20;;;;;;6276239;22;20000;-79
2023/01/25 01:54:01;;;;;;;13.90;9.00;;;7.40;76.40;;;;;;6276094;22;20000;-79
2023/01/25 01:56:34;;;;;;;10.93;7.22;;;7.40;77.20;;;;;;6275492;22;20003;-77
2023/01/25 01:59:01;;;;;;;11.82;7.43;;;7.40;76.60;;;;;;6275546;22;20436;-78
2023/01/25 02:01:27;;;;;;;11.20;7.22;;;7.30;76.40;;;;;;6275480;22;20003;-77
2023/01/25 02:03:54;;;;;;;13.30;7.97;;;7.30;76.60;;;;;;6275619;22;20061;-79
2023/01/25 02:06:30;;;;;;;11.32;7.50;;;7.30;77.20;;;;;;6275526;22;20042;-78
2023/01/25 02:08:57;;;;;;;11.02;7.70;;;7.30;76.60;;;;;;6275830;22;20402;-79
2023/01/25 02:11:23;;;;;;;10.85;7.53;;;7.30;77.00;;;;;;6275635;22;20042;-78
2023/01/25 02:13:51;;;;;;;11.93;7.07;;;7.30;77.30;;;;;;6275455;22;19995;-78
2023/01/25 02:16:21;;;;;;;10.43;6.90;;;7.30;77.60;;;;;;6275820;22;20008;-77
2023/01/25 02:18:47;;;;;;;9.20;6.32;;;7.30;78.10;;;;;;6275719;22;20030;-78
2023/01/25 02:21:13;;;;;;;9.23;6.05;;;7.30;77.90;;;;;;6275484;22;20481;-79
2023/01/25 02:23:46;;;;;;;9.15;6.05;;;7.30;77.80;;;;;;6276153;22;20035;-78
2023/01/25 02:26:13;;;;;;;;;;;7.30;77.90;;;;;;6251251;22;20030;-79
2023/01/25 02:28:51;;;;;;;8.35;5.88;;;7.30;78.00;;;;;;6277349;22;19911;-79
2023/01/25 02:31:17;;;;;;;11.68;6.63;;;7.30;78.30;;;;;;6277589;22;20000;-77
2023/01/25 02:33:43;;;;;;;11.13;6.50;;;7.20;78.00;;;;;;6250662;22;20063;-77
2023/01/25 02:36:08;;;;;;;10.07;6.28;;;7.20;77.80;;;;;;6279426;22;20000;-79
2023/01/25 02:39:08;;;;;;;10.43;7.03;;;7.20;78.30;;;;;;6297484;22;20019;-78
2023/01/25 02:41:43;;;;;;;9.13;6.47;;;7.10;78.10;;;;;;6195993;22;20453;-77
2023/01/25 02:44:13;;;;;;;10.38;7.05;;;7.00;78.10;;;;;;6277578;22;19999;-79
2023/01/25 02:46:40;;;;;;;10.68;7.25;;;7.00;79.50;;;;;;6277754;22;20050;-79
2023/01/25 02:49:08;;;;;;;10.38;6.78;;;7.00;78.60;;;;;;6277376;22;20069;-77
2023/01/25 02:51:36;;;;;;;9.23;6.32;;;7.00;79.10;;;;;;6277192;22;20004;-78
2023/01/25 02:54:04;;;;;;;11.10;7.35;;;7.00;78.90;;;;;;6277263;22;20000;-78
2023/01/25 02:56:29;;;;;;;9.32;6.88;;;7.00;78.90;;;;;;6277386;22;20007;-77
2023/01/25 02:58:55;;;;;;;9.85;6.63;;;7.00;79.10;;;;;;6277650;22;20007;-79
2023/01/25 03:01:21;;;;;;;9.45;6.68;;;7.00;78.90;;;;;;6277504;22;20000;-75
2023/01/25 03:03:47;;;;;;;12.02;7.53;;;7.00;78.80;;;;;;6277332;22;20050;-78
2023/01/25 03:06:13;;;;;;;10.07;6.70;;;7.00;78.70;;;;;;6277315;22;20004;-78
2023/01/25 03:08:39;;;;;;;9.27;6.55;;;7.00;78.80;;;;;;6277047;22;20006;-77
2023/01/25 03:11:06;;;;;;;10.40;6.88;;;6.90;78.90;;;;;;6277416;22;20004;-77
2023/01/25 03:13:33;;;;;;;10.20;6.90;;;6.90;79.00;;;;;;6277264;22;20438;-78
2023/01/25 03:16:01;;;;;;;11.65;7.38;;;6.90;78.90;;;;;;6277064;22;20071;-77
2023/01/25 03:18:27;;;;;;;8.63;6.47;;;6.80;79.00;;;;;;6277794;22;20008;-78
2023/01/25 03:20:52;;;;;;;7.97;5.90;;;6.70;78.90;;;;;;6277624;22;20326;-78
2023/01/25 03:23:18;;;;;;;11.05;6.72;;;6.70;79.00;;;;;;6277173;22;20008;-77
2023/01/25 03:25:44;;;;;;;12.57;6.65;;;6.70;79.40;;;;;;6277835;22;20094;-78
2023/01/25 03:28:09;;;;;;;9.88;6.18;;;6.70;79.20;;;;;;6277008;22;20449;-78
2023/01/25 03:30:35;;;;;;;9.68;6.45;;;6.70;79.20;;;;;;6277309;22;20090;-78
2023/01/25 03:33:01;;;;;;;9.93;6.80;;;6.70;79.30;;;;;;6277709;22;20441;-79
2023/01/25 03:35:27;;;;;;;9.52;6.53;;;6.70;79.30;;;;;;6276901;22;20012;-78
2023/01/25 03:37:53;;;;;;;11.05;6.68;;;6.70;79.30;;;;;;6276843;22;19996;-78
2023/01/25 03:40:19;;;;;;;11.02;7.10;;;6.70;79.30;;;;;;6276821;22;20010;-79
2023/01/25 03:42:45;;;;;;;10.60;7.40;;;6.70;79.10;;;;;;6276514;22;20015;-74
2023/01/25 03:45:13;;;;;;;11.25;6.78;;;6.70;79.40;;;;;;6276960;22;20026;-79
2023/01/25 03:47:39;;;;;;;9.30;6.38;;;6.80;79.60;;;;;;6276695;22;20000;-77
2023/01/25 03:50:06;;;;;;;8.57;6.30;;;6.80;79.50;;;;;;6277027;22;20035;-78
2023/01/25 03:53:28;;;;;;;9.82;6.60;;;6.80;79.30;;;;;;6276789;22;20007;-77
2023/01/25 03:55:57;;;;;;;9.45;6.20;;;6.90;80.20;;;;;;6273002;22;20010;-77
2023/01/25 03:58:23;;;;;;;11.93;6.25;;;6.90;79.60;;;;;;6276542;22;20000;-78
2023/01/25 04:00:48;;;;;;;9.20;6.15;;;6.90;79.10;;;;;;6277005;22;19999;-77
2023/01/25 04:03:16;;;;;;;11.45;6.20;;;6.90;79.20;;;;;;6276670;22;20105;-77
2023/01/25 04:05:42;;;;;;;9.68;6.50;;;6.90;79.20;;;;;;6277033;22;20334;-77
2023/01/25 04:08:08;;;;;;;9.30;6.40;;;6.90;79.40;;;;;;6277457;22;20008;-78
2023/01/25 04:10:33;;;;;;;9.98;6.90;;;6.90;78.90;;;;;;6285199;22;19996;-77
2023/01/25 04:12:59;;;;;;;10.73;6.90;;;6.90;79.00;;;;;;6267600;22;20058;-77
2023/01/25 04:15:24;;;;;;;9.50;6.93;;;6.90;79.60;;;;;;6293324;22;20034;-78
2023/01/25 04:17:50;;;;;;;9.77;6.40;;;6.90;79.20;;;;;;6277119;22;20006;-78
2023/01/25 04:20:16;;;;;;;11.30;7.38;;;6.90;79.80;;;;;;6276796;22;19999;-77
2023/01/25 04:22:42;;;;;;;11.00;6.78;;;6.90;79.60;;;;;;6276381;22;20051;-77
2023/01/25 04:25:08;;;;;;;9.63;6.55;;;6.90;79.50;;;;;;6276509;22;20004;-78
2023/01/25 04:27:33;;;;;;;10.25;6.30;;;6.90;79.60;;;;;;6275867;22;20008;-79
2023/01/25 04:29:59;;;;;;;10.70;6.88;;;6.90;79.60;;;;;;6276340;22;20023;-78
2023/01/25 04:32:25;;;;;;;8.80;6.10;;;6.90;79.40;;;;;;6277044;22;20072;-79
2023/01/25 04:34:50;;;;;;;13.55;7.15;;;6.80;79.30;;;;;;6276490;22;20008;-78
2023/01/25 04:37:16;;;;;;;9.25;6.40;;;6.80;79.40;;;;;;6276027;22;20054;-77
2023/01/25 11:27:24;;;;;;;8.15;4.00;;;12.70;66.00;;;;;;6241656;23;20053;-74
2023/01/25 11:30:10;;;;;;;9.27;4.03;;;12.80;65.90;;;;;;6246124;23;20020;-74
2023/01/25 11:32:38;;;;;;;7.22;3.45;;;12.80;65.30;;;;;;6246102;23;20004;-74
2023/01/25 11:35:25;;;;;;;6.70;3.30;;;12.80;65.60;;;;;;6246081;23;20075;-74
2023/01/25 11:38:00;;;;;;;9.50;3.70;;;12.70;65.10;;;;;;6246199;23;20390;-74
2023/01/25 11:40:44;;;;;;;6.45;3.67;;;12.70;65.50;;;;;;6245706;23;20047;-74
2023/01/25 11:43:42;;;;;;;9.80;3.90;;;12.60;65.40;;;;;;6245732;23;20012;-74
2023/01/25 11:46:49;;;;;;;9.15;3.92;;;12.60;65.50;;;;;;6245983;23;20433;-74
2023/01/25 11:49:39;;;;;;;16.92;4.35;;;12.50;65.70;;;;;;6126126;23;20471;-73
2023/01/25 11:52:29;;;;;;;10.30;4.20;;;12.50;65.70;;;;;;6246013;23;20012;-74
2023/01/25 11:55:05;;;;;;;6.30;3.60;;;12.60;65.90;;;;;;6245696;23;20452;-74
2023/01/25 11:58:02;;;;;;;6.15;3.63;;;12.50;65.60;;;;;;6244949;23;20016;-73
2023/01/25 12:00:46;;;;;;;6.75;3.13;;;12.50;65.90;;;;;;6245425;23;20038;-74
2023/01/25 12:03:46;;;;;;;8.82;3.03;;;12.60;65.30;;;;;;6245272;23;20100;-75
2023/01/25 12:06:22;;;;;;;8.25;3.10;;;12.50;65.30;;;;;;6246269;23;20079;-74
2023/01/25 12:09:12;;;;;;;6.60;2.80;;;12.60;64.50;;;;;;6245803;23;20311;-75
2023/01/25 12:11:59;;;;;;;7.95;3.92;;;12.60;64.00;;;;;;6245364;23;20050;-73
2023/01/25 12:14:54;;;;;;;7.90;3.50;;;12.70;64.30;;;;;;6245279;23;20430;-72
2023/01/25 12:17:38;;;;;;;14.52;4.60;;;12.80;64.60;;;;;;6245689;23;20008;-71
2023/01/25 12:20:45;;;;;;;10.25;5.35;;;13.00;65.20;;;;;;6245836;23;20000;-70
2023/01/25 12:23:46;;;;;;;10.98;4.85;;;13.20;65.20;;;;;;6173024;23;20016;-71
2023/01/25 12:26:21;;;;;;;10.43;6.60;;;13.20;64.40;;;;;;6218443;23;20362;-73
2023/01/25 12:28:53;;;;;;;15.98;7.72;;;13.20;64.40;;;;;;6243543;23;20102;-72
2023/01/25 12:31:31;;;;;;;15.00;8.18;;;13.20;64.90;;;;;;6244858;23;20031;-73
2023/01/25 12:34:02;;;;;;;13.35;7.10;;;13.20;65.70;;;;;;6245504;23;20038;-71
2023/01/25 12:36:46;;;;;;;13.07;7.45;;;13.20;65.40;;;;;;6245219;23;20011;-72
2023/01/25 12:39:19;;;;;;;13.68;6.32;;;13.20;66.10;;;;;;6245281;23;20054;-72
2023/01/25 12:41:55;;;;;;;15.75;9.27;;;13.20;66.30;;;;;;6245177;23;20332;-72
2023/01/25 12:44:39;;;;;;;14.80;9.82;;;13.20;65.50;;;;;;6245267;23;20000;-74
2023/01/25 12:47:05;;;;;;;21.70;10.35;;;13.20;66.20;;;;;;6245299;23;20031;-74
2023/01/25 12:49:41;;;;;;;16.27;9.98;;;13.20;65.90;;;;;;6244856;23;20398;-73
2023/01/25 12:52:30;;;;;;;15.52;10.60;;;13.20;66.10;;;;;;6245070;23;20028;-73
2023/01/25 12:55:03;;;;;;;17.75;10.68;;;13.30;66.50;;;;;;6226193;23;20015;-76
2023/01/25 12:57:42;;;;;;;19.42;10.50;;;13.30;66.40;;;;;;6244281;23;20426;-79
2023/01/25 13:00:22;;;;;;;20.77;10.50;;;13.30;66.40;;;;;;6244862;23;20027;-75
2023/01/25 13:02:59;;;;;;;15.52;10.23;;;13.30;66.50;;;;;;6244772;23;20403;-75
2023/01/25 13:05:52;;;;;;;16.95;10.07;;;13.30;66.30;;;;;;6244639;23;20000;-75
2023/01/25 13:08:23;;;;;;;20.42;11.02;;;13.40;66.60;;;;;;6244140;23;20007;-76
2023/01/25 13:11:18;;;;;;;18.42;9.70;;;13.40;66.20;;;;;;6244490;23;20000;-78
2023/01/25 13:13:43;;;;;;;;;;;13.40;65.90;;;;;;6236661;23;20355;-76
2023/01/25 13:16:29;;;;;;;10.85;6.80;;;13.40;64.80;;;;;;6244461;23;19900;-76
2023/01/25 13:18:56;;;;;;;11.82;6.00;;;13.40;65.10;;;;;;6244764;23;20382;-75
2023/01/25 13:21:37;;;;;;;8.75;5.35;;;13.50;65.20;;;;;;6244990;23;20004;-77
2023/01/25 13:24:15;;;;;;;13.38;5.10;;;13.50;64.40;;;;;;6245385;23;20057;-76
2023/01/25 13:26:53;;;;;;;7.40;4.50;;;13.60;64.60;;;;;;6245040;23;20342;-76
2023/01/25 13:29:34;;;;;;;8.02;4.38;;;13.70;64.20;;;;;;6211086;23;20078;-76
2023/01/25 13:32:02;;;;;;;11.25;4.03;;;13.80;63.60;;;;;;6210971;23;20417;-75
2023/01/25 13:34:41;;;;;;;7.80;4.07;;;13.90;63.00;;;;;;6217451;23;20040;-76
2023/01/25 13:37:24;;;;;;;8.23;4.28;;;14.10;63.60;;;;;;6216487;23;20059;-75
2023/01/25 13:39:53;;;;;;;5.50;3.28;;;14.20;63.20;;;;;;6215028;23;20004;-75
2023/01/25 13:42:21;;;;;;;5.80;3.20;;;14.20;61.50;;;;;;6214684;23;20047;-76
2023/01/25 13:44:49;;;;;;;6.47;3.80;;;14.30;61.50;;;;;;6212973;23;20408;-76
2023/01/25 13:47:36;;;;;;;5.80;3.38;;;14.30;61.10;;;;;;6214721;23;20024;-76
2023/01/25 13:50:17;;;;;;;9.57;4.15;;;14.40;61.40;;;;;;6214969;23;20036;-75
2023/01/25 13:53:01;;;;;;;8.55;3.88;;;14.40;61.20;;;;;;6214512;23;20253;-75
2023/01/25 13:55:28;;;;;;;9.30;4.22;;;14.50;61.10;;;;;;6214423;23;20009;-77
2023/01/25 13:58:10;;;;;;;10.07;4.70;;;14.50;61.20;;;;;;6214069;23;20031;-75
2023/01/25 14:00:36;;;;;;;10.52;5.20;;;14.50;61.30;;;;;;6214453;23;20004;-75
2023/01/25 14:03:04;;;;;;;8.68;5.05;;;14.40;60.90;;;;;;6214548;23;20389;-82
2023/01/25 14:05:30;;;;;;;11.73;4.72;;;14.40;61.20;;;;;;6214589;23;20415;-76
2023/01/25 14:07:56;;;;;;;10.32;4.40;;;14.40;61.40;;;;;;6213205;23;20016;-78
2023/01/25 14:10:26;;;;;;;12.30;4.20;;;14.40;60.90;;;;;;6213071;23;20327;-77
2023/01/25 14:12:56;;;;;;;5.78;3.70;;;14.40;60.90;;;;;;6214724;23;20107;-76
2023/01/25 14:15:24;;;;;;;7.57;4.15;;;14.50;61.20;;;;;;6214820;23;20001;-78
2023/01/25 14:18:26;;;;;;;6.18;3.80;;;14.50;60.70;;;;;;6215125;23;20068;-78
2023/01/25 14:21:14;;;;;;;7.70;4.10;;;14.60;60.80;;;;;;6170174;23;20123;-78
2023/01/25 14:23:40;;;;;;;375.95;33.28;;;14.60;60.40;;;;;;6216834;23;20012;-77
2023/01/25 14:26:19;;;;;;;30.73;6.22;;;14.60;60.40;;;;;;6216255;23;20027;-77
2023/01/25 14:28:51;;;;;;;20.65;5.20;;;14.70;60.80;;;;;;6216330;23;20021;-77
2023/01/25 14:31:27;;;;;;;11.13;4.40;;;14.80;60.20;;;;;;6217781;23;20024;-78
2023/01/25 14:33:57;;;;;;;8.18;4.53;;;14.80;60.30;;;;;;6218199;23;20027;-78
2023/01/25 14:36:27;;;;;;;13.68;4.38;;;14.80;59.70;;;;;;6218427;23;20015;-81
2023/01/25 14:38:54;;;;;;;11.98;4.80;;;14.80;60.00;;;;;;6217560;23;20008;-77
2023/01/25 14:41:36;;;;;;;39.10;5.15;;;14.80;60.20;;;;;;6218009;23;20011;-77
2023/01/25 14:44:13;;;;;;;13.15;4.70;;;14.90;59.90;;;;;;6217233;23;20020;-73
2023/01/25 14:46:40;;;;;;;7.90;3.83;;;15.00;60.00;;;;;;6216498;23;20470;-72
2023/01/25 14:49:12;;;;;;;10.82;3.97;;;15.00;59.60;;;;;;6216875;23;20005;-74
2023/01/25 14:52:03;;;;;;;10.27;4.18;;;15.00;59.70;;;;;;6216623;23;20376;-72
2023/01/25 14:54:36;;;;;;;6.75;3.85;;;14.90;60.20;;;;;;6216913;23;20461;-73
2023/01/25 14:57:06;;;;;;;3.38;2.10;;;14.80;60.10;;;;;;6224308;23;20001;-73
2023/01/25 14:59:32;;;;;;;5.55;2.03;;;14.60;58.80;;;;;;6228284;23;20027;-75
2023/01/25 15:02:19;;;;;;;5.07;2.35;;;14.50;58.50;;;;;;6222329;23;20000;-74
2023/01/25 15:04:59;;;;;;;6.80;2.60;;;14.40;58.50;;;;;;6224451;23;20004;-74
2023/01/25 15:07:48;;;;;;;4.32;2.10;;;14.30;58.80;;;;;;6217287;23;20090;-74
2023/01/25 15:10:21;;;;;;;3.80;1.90;;;14.20;58.40;;;;;;6216893;23;20022;-73
2023/01/25 15:13:18;;;;;;;4.93;2.08;;;14.20;58.00;;;;;;6216958;23;20018;-73
2023/01/25 15:16:01;;;;;;;3.95;1.98;;;14.10;57.60;;;;;;6216991;23;20000;-73
2023/01/25 15:18:42;;;;;;;5.28;2.20;;;14.00;58.10;;;;;;6217103;23;20005;-73
2023/01/25 15:21:11;;;;;;;3.60;2.00;;;13.90;58.10;;;;;;6217392;23;20000;-74
2023/01/25 15:23:38;;;;;;;5.68;2.20;;;13.90;57.70;;;;;;6217129;23;20286;-74
2023/01/25 15:26:13;;;;;;;7.22;2.42;;;13.80;57.70;;;;;;6217291;23;19997;-74
2023/01/25 15:28:39;;;;;;;3.65;2.20;;;13.70;57.90;;;;;;6235159;23;20099;-74
2023/01/25 15:31:05;;;;;;;5.75;2.40;;;13.70;58.00;;;;;;6245873;23;20032;-73
2023/01/25 15:33:31;;;;;;;4.65;2.42;;;13.60;58.00;;;;;;6245680;23;20008;-74
2023/01/25 15:35:58;;;;;;;4.45;2.25;;;13.50;58.10;;;;;;6246038;23;20000;-74
2023/01/25 15:38:24;;;;;;;4.93;2.17;;;13.50;58.10;;;;;;6245934;23;20011;-72
2023/01/25 15:40:51;;;;;;;6.80;2.75;;;13.40;58.20;;;;;;6245906;23;20012;-75
2023/01/25 15:43:18;;;;;;;4.47;2.40;;;13.40;58.50;;;;;;6245489;23;20039;-74
2023/01/25 15:45:46;;;;;;;7.28;2.30;;;13.30;58.50;;;;;;6245944;23;20004;-77
2023/01/25 15:48:34;;;;;;;4.80;2.85;;;13.20;58.60;;;;;;6246141;23;20115;-75
2023/01/25 15:51:00;;;;;;;7.80;2.50;;;13.20;58.90;;;;;;6219161;23;20000;-76
2023/01/25 15:53:25;;;;;;;4.40;2.50;;;13.10;58.60;;;;;;6218658;23;20008;-75
2023/01/25 15:55:58;;;;;;;6.03;2.80;;;13.10;59.20;;;;;;6245440;23;20106;-76
2023/01/25 15:58:27;;;;;;;4.90;2.65;;;13.00;59.20;;;;;;6245902;23;20008;-79
2023/01/25 16:00:53;;;;;;;6.15;2.78;;;12.90;59.30;;;;;;6246019;23;20418;-76
2023/01/25 16:03:19;;;;;;;6.25;2.85;;;12.90;59.70;;;;;;6245910;23;20008;-78
2023/01/25 16:05:47;;;;;;;5.55;2.70;;;12.80;60.00;;;;;;6245502;23;20023;-76
2023/01/25 16:08:19;;;;;;;10.32;3.20;;;12.80;59.90;;;;;;6219848;23;20102;-74
2023/01/25 16:10:45;;;;;;;5.53;3.00;;;12.70;59.70;;;;;;6245935;23;20092;-76
2023/01/25 16:13:11;;;;;;;5.00;2.63;;;12.70;60.10;;;;;;6218361;23;20498;-77
2023/01/25 16:15:38;;;;;;;4.22;2.70;;;12.60;60.10;;;;;;6218641;23;20014;-73
2023/01/25 16:18:04;;;;;;;4.70;2.85;;;12.50;59.70;;;;;;6218521;23;20505;-76
2023/01/25 16:20:30;;;;;;;11.52;3.83;;;12.50;60.00;;;;;;6245853;23;20000;-78
2023/01/25 16:22:56;;;;;;;7.10;3.22;;;12.50;60.50;;;;;;6245750;23;20040;-75
2023/01/25 16:25:22;;;;;;;6.60;3.20;;;12.50;60.80;;;;;;6245406;23;20004;-74
2023/01/25 16:27:48;;;;;;;6.45;2.97;;;12.60;60.80;;;;;;6245479;23;20024;-82
2023/01/25 16:30:24;;;;;;;9.82;3.30;;;12.60;61.00;;;;;;6245328;23;20083;-78
2023/01/25 16:32:51;;;;;;;6.25;3.22;;;12.60;60.60;;;;;;6245441;23;20062;-76
2023/01/25 16:35:18;;;;;;;5.65;3.45;;;12.60;60.70;;;;;;6245374;23;20009;-83
2023/01/25 16:37:44;;;;;;;5.53;3.63;;;12.60;60.40;;;;;;6245246;23;20000;-79
2023/01/25 16:40:30;;;;;;;5.50;3.10;;;12.60;60.50;;;;;;6245521;23;19997;-79
2023/01/25 16:42:56;;;;;;;5.45;3.10;;;12.50;60.10;;;;;;6245586;23;20016;-77
2023/01/25 16:45:23;;;;;;;5.60;3.30;;;12.60;60.30;;;;;;6245286;23;20058;-75
2023/01/25 16:47:50;;;;;;;6.40;3.17;;;12.50;60.10;;;;;;6246028;23;20008;-77
2023/01/25 16:50:17;;;;;;;6.85;3.30;;;12.50;60.20;;;;;;6219146;23;20000;-77
2023/01/25 16:52:44;;;;;;;5.30;3.55;;;12.40;60.20;;;;;;6245439;23;20298;-77
2023/01/25 16:55:12;;;;;;;4.90;3.10;;;12.40;60.30;;;;;;6245751;23;20000;-78
2023/01/25 16:57:42;;;;;;;7.47;3.80;;;12.40;60.00;;;;;;6245376;23;20026;-79
2023/01/25 17:00:11;;;;;;;7.05;3.40;;;12.40;60.00;;;;;;6245860;23;20371;-78
2023/01/25 17:02:38;;;;;;;6.13;3.30;;;12.40;60.70;;;;;;6245488;23;20012;-77
2023/01/25 17:05:05;;;;;;;5.63;3.08;;;12.40;60.20;;;;;;6245789;23;20379;-79
2023/01/25 17:07:32;;;;;;;8.52;3.60;;;12.30;60.40;;;;;;6245524;23;20012;-78
2023/01/25 17:09:57;;;;;;;5.45;3.38;;;12.30;60.40;;;;;;6245821;23;20003;-78
2023/01/25 17:12:23;;;;;;;7.28;4.28;;;12.30;60.50;;;;;;6245682;23;20008;-77
2023/01/25 17:14:49;;;;;;;6.43;3.53;;;12.30;60.20;;;;;;6245702;23;19996;-77
2023/01/25 17:17:15;;;;;;;6.82;3.60;;;12.30;60.40;;;;;;6246829;23;20047;-76
2023/01/25 17:19:41;;;;;;;7.03;3.88;;;12.30;60.30;;;;;;6245298;22;20035;-76
2023/01/25 17:22:06;;;;;;;6.95;4.28;;;12.30;60.20;;;;;;6246016;23;20450;-77
2023/01/25 17:24:34;;;;;;;6.30;4.20;;;12.20;60.30;;;;;;6245591;23;20007;-79
2023/01/25 17:27:01;;;;;;;9.77;4.80;;;12.20;60.50;;;;;;6245867;23;20004;-77
2023/01/25 17:29:28;;;;;;;7.75;4.97;;;12.20;60.50;;;;;;6245755;23;20020;-78
2023/01/25 17:31:54;;;;;;;12.25;4.68;;;12.10;60.40;;;;;;6218918;23;20010;-75
2023/01/25 17:34:20;;;;;;;8.52;4.68;;;12.10;60.70;;;;;;6244952;23;20112;-78
2023/01/25 17:36:47;;;;;;;10.65;5.10;;;12.10;60.60;;;;;;6245363;23;20418;-81
2023/01/25 17:39:15;;;;;;;7.60;4.60;;;12.00;60.50;;;;;;6219198;23;20311;-81
2023/01/25 17:41:43;;;;;;;7.60;4.55;;;12.00;60.60;;;;;;6246284;23;20004;-78
2023/01/25 17:44:09;;;;;;;7.18;4.53;;;11.90;60.60;;;;;;6255723;23;20003;-83
2023/01/25 17:46:36;;;;;;;9.30;5.03;;;11.90;60.90;;;;;;6257008;23;20015;-80
2023/01/25 17:49:04;;;;;;;8.88;5.05;;;11.80;61.10;;;;;;6261448;23;20011;-78
2023/01/25 17:51:32;;;;;;;10.32;5.68;;;11.80;61.10;;;;;;6269989;23;20003;-79
2023/01/25 17:53:58;;;;;;;9.57;5.80;;;11.80;61.30;;;;;;6246814;23;20418;-79
2023/01/25 17:56:24;;;;;;;9.18;5.70;;;11.80;61.30;;;;;;6246206;23;20020;-79
2023/01/25 17:58:50;;;;;;;7.45;5.35;;;11.80;61.40;;;;;;6244163;22;20016;-79
2023/01/25 18:01:18;;;;;;;7.90;5.50;;;11.70;61.30;;;;;;6217822;23;20090;-79
2023/01/25 18:03:45;;;;;;;12.13;6.05;;;11.70;61.40;;;;;;6218164;23;20073;-81
2023/01/25 18:06:16;;;;;;;13.15;6.28;;;11.70;61.70;;;;;;6245331;23;20004;-79
2023/01/25 18:08:44;;;;;;;10.25;6.22;;;11.70;61.50;;;;;;6245319;23;20103;-80
2023/01/25 18:11:14;;;;;;;12.48;6.03;;;11.70;61.50;;;;;;6245345;23;20004;-79
2023/01/25 18:13:51;;;;;;;14.85;6.50;;;11.70;61.70;;;;;;6245762;23;20000;-80
2023/01/25 18:16:18;;;;;;;11.10;6.57;;;11.80;61.70;;;;;;6245120;23;20007;-79
2023/01/25 18:18:44;;;;;;;8.90;6.18;;;11.70;61.40;;;;;;6245707;23;20084;-78
2023/01/25 18:21:12;;;;;;;12.43;7.00;;;11.70;61.40;;;;;;6245222;23;20006;-79
2023/01/25 18:23:39;;;;;;;9.10;6.38;;;11.70;61.30;;;;;;6245204;23;20395;-80
2023/01/25 18:26:10;;;;;;;10.90;6.57;;;11.60;61.70;;;;;;6245277;23;20000;-80
2023/01/25 18:28:36;;;;;;;9.10;5.80;;;11.60;61.60;;;;;;6244711;23;20016;-78
2023/01/25 18:31:04;;;;;;;11.82;6.22;;;11.60;61.80;;;;;;6218692;23;20007;-79
2023/01/25 18:33:32;;;;;;;9.70;5.90;;;11.50;61.80;;;;;;6244860;23;20008;-80
2023/01/25 18:35:58;;;;;;;10.77;5.68;;;11.50;62.00;;;;;;6245003;23;20023;-79
2023/01/25 18:38:25;;;;;;;7.50;5.20;;;11.50;61.80;;;;;;6217832;23;20442;-79
2023/01/25 18:40:51;;;;;;;9.90;5.72;;;11.40;61.80;;;;;;6244432;23;20059;-78
2023/01/25 18:43:17;;;;;;;8.38;5.35;;;11.40;62.00;;;;;;6244482;22;20012;-78
2023/01/25 18:45:43;;;;;;;8.35;5.38;;;11.40;62.00;;;;;;6244570;23;20079;-80
2023/01/25 18:48:12;;;;;;;8.07;5.53;;;11.40;62.20;;;;;;6244501;23;20000;-79
2023/01/25 18:50:41;;;;;;;8.80;4.90;;;11.40;62.30;;;;;;6244473;23;19997;-79
2023/01/25 18:53:08;;;;;;;8.82;5.10;;;11.40;61.90;;;;;;6244742;23;20027;-79
2023/01/25 18:55:36;;;;;;;10.13;5.25;;;11.40;61.80;;;;;;6244788;23;20425;-80
2023/01/25 18:58:03;;;;;;;8.52;4.90;;;11.30;61.70;;;;;;6217939;23;20008;-79
2023/01/25 19:00:32;;;;;;;7.93;5.15;;;11.30;61.60;;;;;;6245095;23;20007;-78
2023/01/25 19:02:59;;;;;;;8.45;5.28;;;11.20;61.60;;;;;;6245812;23;20012;-80
2023/01/25 19:05:25;;;;;;;9.05;5.72;;;11.20;62.00;;;;;;6245120;23;19996;-80
2023/01/25 19:07:51;;;;;;;8.07;5.20;;;11.20;62.10;;;;;;6247272;23;20107;-79
2023/01/25 19:10:17;;;;;;;7.65;5.50;;;11.20;62.10;;;;;;6245696;22;20030;-80
2023/01/25 19:12:42;;;;;;;10.60;5.40;;;11.20;62.20;;;;;;6247208;23;20000;-80
2023/01/25 19:15:08;;;;;;;9.13;5.60;;;11.20;62.10;;;;;;6247432;23;20079;-79
2023/01/25 19:17:34;;;;;;;9.05;5.25;;;11.20;62.30;;;;;;6247186;23;20377;-80
2023/01/25 19:20:01;;;;;;;7.43;5.47;;;11.20;62.10;;;;;;6246603;23;20490;-79
2023/01/25 19:22:27;;;;;;;9.23;5.50;;;11.20;62.10;;;;;;6247042;23;20091;-79
2023/01/25 19:24:53;;;;;;;13.23;5.32;;;11.20;61.80;;;;;;6246811;23;19996;-79
2023/01/25 19:27:19;;;;;;;8.57;5.90;;;11.20;61.60;;;;;;6246503;23;20011;-79
2023/01/25 19:29:44;;;;;;;8.50;5.43;;;11.20;61.60;;;;;;6246985;23;20039;-79
2023/01/25 19:32:10;;;;;;;8.20;5.45;;;11.20;61.60;;;;;;6246674;23;20011;-79
2023/01/25 19:34:37;;;;;;;8.65;5.10;;;11.20;61.50;;;;;;6247480;23;20063;-79
2023/01/25 19:37:03;;;;;;;10.43;5.63;;;11.20;61.50;;;;;;6247203;23;20004;-80
2023/01/25 19:39:28;;;;;;;8.82;4.93;;;11.20;61.50;;;;;;6246922;23;20008;-80
2023/01/25 19:41:54;;;;;;;7.68;4.75;;;11.10;61.40;;;;;;6246449;23;20036;-79
2023/01/25 19:44:20;;;;;;;10.70;6.35;;;11.10;61.50;;;;;;6245821;23;20000;-79
2023/01/25 19:46:46;;;;;;;8.82;5.38;;;11.10;61.60;;;;;;6246583;23;20079;-78
2023/01/25 19:49:13;;;;;;;10.00;5.30;;;11.10;61.80;;;;;;6246292;23;20034;-77
2023/01/25 19:51:43;;;;;;;7.88;4.80;;;11.10;62.10;;;;;;6246349;23;20005;-78
2023/01/25 19:54:16;;;;;;;8.27;4.95;;;11.10;62.00;;;;;;6246240;23;20050;-80